createdAt,value
2022-12-22T00:01:30.578Z,40.38
2022-12-22T00:04:17.972Z,41.33
2022-12-22T00:07:03.369Z,39.20
2022-12-22T00:09:48.667Z,40.10
2022-12-22T00:12:37.681Z,36.60
2022-12-22T00:15:24.330Z,37.42
2022-12-22T00:18:10.157Z,37.53
2022-12-22T00:20:55.916Z,32.78
2022-12-22T00:23:41.280Z,38.15
2022-12-22T00:26:27.294Z,35.33
2022-12-22T00:29:13.054Z,33.90
2022-12-22T00:31:59.748Z,35.47
2022-12-22T00:34:46.423Z,31.80
2022-12-22T00:37:32.878Z,34.25
2022-12-22T00:40:19.933Z,35.72
2022-12-22T00:43:05.916Z,38.85
2022-12-22T00:45:51.462Z,34.97
2022-12-22T00:48:45.816Z,39.97
2022-12-22T00:51:32.159Z,53.17
2022-12-22T00:54:17.652Z,54.30
2022-12-22T00:57:03.333Z,48.45
2022-12-22T00:59:49.448Z,38.53
2022-12-22T01:02:36.303Z,34.17
2022-12-22T01:05:21.976Z,33.60
2022-12-22T01:08:07.960Z,32.70
2022-12-22T01:10:53.484Z,34.70
2022-12-22T01:13:39.345Z,34.38
2022-12-22T01:16:25.341Z,36.95
2022-12-22T01:19:11.884Z,30.05
2022-12-22T01:21:57.457Z,30.85
2022-12-22T01:24:48.130Z,24.50
2022-12-22T01:27:38.252Z,35.47
2022-12-22T01:30:24.436Z,32.17
2022-12-22T01:33:10.069Z,30.05
2022-12-22T01:35:55.909Z,29.15
2022-12-22T01:38:41.743Z,29.70
2022-12-22T01:41:33.266Z,30.90
2022-12-22T01:44:19.025Z,33.05
2022-12-22T01:47:05.768Z,31.60
2022-12-22T01:50:04.336Z,27.70
2022-12-22T01:52:53.556Z,34.55
2022-12-22T01:55:43.684Z,24.83
2022-12-22T01:58:42.588Z,29.15
2022-12-22T02:01:28.272Z,26.15
2022-12-22T02:04:14.341Z,31.35
2022-12-22T02:07:01.541Z,29.88
2022-12-22T02:10:02.534Z,25.60
2022-12-22T02:13:09.591Z,31.38
2022-12-22T02:16:05.775Z,26.65
2022-12-22T02:19:03.880Z,40.58
2022-12-22T02:22:01.973Z,35.30
2022-12-22T02:24:47.227Z,27.05
2022-12-22T02:27:34.200Z,33.65
2022-12-22T02:30:23.232Z,31.58
2022-12-22T02:33:10.164Z,27.70
2022-12-22T02:36:15.804Z,37.45
2022-12-22T02:39:10.482Z,28.15
2022-12-22T02:42:22.001Z,27.75
2022-12-22T02:45:32.331Z,35.80
2022-12-22T02:48:20.589Z,31.73
2022-12-22T02:51:13.348Z,30.50
2022-12-22T02:53:59.845Z,26.48
2022-12-22T02:56:45.825Z,23.00
2022-12-22T02:59:31.826Z,26.45
2022-12-22T03:02:17.340Z,26.48
2022-12-22T03:05:03.387Z,27.58
2022-12-22T03:07:48.817Z,26.88
2022-12-22T03:10:34.240Z,30.77
2022-12-22T03:13:19.855Z,24.90
2022-12-22T03:16:06.358Z,26.30
2022-12-22T03:18:52.054Z,31.85
2022-12-22T03:21:37.852Z,27.20
2022-12-22T03:24:23.842Z,31.65
2022-12-22T03:26:50.975Z,28.17
2022-12-22T03:29:17.890Z,30.80
2022-12-22T03:31:44.961Z,27.80
2022-12-22T03:34:11.930Z,35.65
2022-12-22T03:36:38.884Z,32.05
2022-12-22T03:39:05.956Z,31.33
2022-12-22T03:41:51.927Z,45.22
2022-12-22T03:44:37.881Z,67.45
2022-12-22T03:47:05.040Z,37.80
2022-12-22T03:49:32.326Z,44.58
2022-12-22T03:51:59.430Z,58.60
2022-12-22T03:54:26.610Z,37.95
2022-12-22T03:56:54.631Z,36.60
2022-12-22T03:59:22.035Z,33.97
2022-12-22T04:01:51.828Z,27.67
2022-12-22T04:04:21.199Z,33.03
2022-12-22T04:06:48.492Z,35.72
2022-12-22T04:09:15.375Z,41.90
2022-12-22T04:12:01.089Z,46.50
2022-12-22T04:14:33.727Z,53.92
2022-12-22T04:17:03.045Z,32.55
2022-12-22T04:19:30.629Z,31.13
2022-12-22T04:21:58.026Z,36.72
2022-12-22T04:24:25.732Z,36.50
2022-12-22T04:26:53.247Z,38.38
2022-12-22T04:29:20.430Z,40.63
2022-12-22T04:31:47.686Z,34.90
2022-12-22T04:34:14.807Z,36.13
2022-12-22T04:36:43.724Z,31.35
2022-12-22T04:39:10.615Z,39.88
2022-12-22T04:41:37.471Z,37.47
2022-12-22T04:44:04.354Z,43.25
2022-12-22T04:46:31.423Z,33.38
2022-12-22T04:49:00.464Z,40.13
2022-12-22T04:51:28.562Z,35.63
2022-12-22T04:53:55.627Z,41.05
2022-12-22T04:56:22.655Z,42.65
2022-12-22T04:58:49.684Z,38.88
2022-12-22T05:01:18.892Z,36.28
2022-12-22T05:03:54.433Z,41.28
2022-12-22T05:06:21.493Z,36.65
2022-12-22T05:08:48.499Z,40.10
2022-12-22T05:11:15.654Z,44.70
2022-12-22T05:13:42.593Z,48.97
2022-12-22T05:16:15.852Z,49.97
2022-12-22T05:18:46.649Z,46.83
2022-12-22T05:21:21.836Z,42.15
2022-12-22T05:23:50.511Z,45.80
2022-12-22T05:26:19.022Z,43.90
2022-12-22T05:28:49.155Z,51.63
2022-12-22T05:31:25.313Z,63.43
2022-12-22T05:33:52.830Z,75.53
2022-12-22T05:36:20.085Z,73.65
2022-12-22T05:38:47.191Z,70.65
2022-12-22T05:41:14.911Z,69.03
2022-12-22T05:43:42.104Z,135.35
2022-12-22T05:46:13.896Z,83.25
2022-12-22T05:48:41.323Z,77.07
2022-12-22T05:51:09.794Z,89.88
2022-12-22T05:53:38.722Z,80.85
2022-12-22T05:56:06.754Z,100.63
2022-12-22T05:58:35.268Z,78.45
2022-12-22T06:01:02.278Z,79.25
2022-12-22T06:03:30.747Z,78.13
2022-12-22T06:05:59.522Z,88.65
2022-12-22T06:08:28.171Z,78.72
2022-12-22T06:10:57.621Z,73.30
2022-12-22T06:13:25.936Z,86.80
2022-12-22T06:15:53.974Z,76.63
2022-12-22T06:18:21.861Z,74.63
2022-12-22T06:20:52.195Z,120.68
2022-12-22T06:23:19.488Z,122.07
2022-12-22T06:26:01.324Z,120.10
2022-12-22T06:28:29.394Z,110.75
2022-12-22T06:30:56.826Z,100.43
2022-12-22T06:33:24.443Z,119.90
2022-12-22T06:35:57.887Z,111.18
2022-12-22T06:38:28.095Z,77.85
2022-12-22T06:40:55.405Z,77.47
2022-12-22T06:43:23.024Z,74.03
2022-12-22T06:45:50.428Z,111.30
2022-12-22T06:48:18.026Z,105.88
2022-12-22T06:50:45.933Z,92.50
2022-12-22T06:53:14.751Z,107.35
2022-12-22T06:55:42.054Z,107.75
2022-12-22T06:58:10.036Z,74.38
2022-12-22T07:00:37.015Z,76.95
2022-12-22T07:03:04.640Z,81.90
2022-12-22T07:05:32.388Z,85.82
2022-12-22T07:08:08.081Z,92.80
2022-12-22T07:10:54.620Z,69.60
2022-12-22T07:13:21.879Z,72.60
2022-12-22T07:15:55.605Z,61.83
2022-12-22T07:18:27.106Z,59.65
2022-12-22T07:20:54.919Z,115.40
2022-12-22T07:23:22.015Z,62.33
2022-12-22T07:25:49.302Z,49.47
2022-12-22T07:28:20.679Z,77.03
2022-12-22T07:30:49.946Z,60.17
2022-12-22T07:33:17.951Z,63.42
2022-12-22T07:35:45.932Z,51.95
2022-12-22T07:38:13.861Z,51.92
2022-12-22T07:40:42.397Z,46.13
2022-12-22T07:43:10.455Z,44.80
2022-12-22T07:45:38.572Z,62.28
2022-12-22T07:48:26.524Z,48.45
2022-12-22T07:50:55.038Z,48.55
2022-12-22T07:53:22.562Z,48.65
2022-12-22T07:55:49.726Z,52.75
2022-12-22T07:58:17.826Z,52.28
2022-12-22T08:00:45.149Z,57.35
2022-12-22T08:03:12.323Z,62.50
2022-12-22T08:05:39.631Z,60.25
2022-12-22T08:08:07.728Z,52.85
2022-12-22T08:10:37.704Z,54.58
2022-12-22T08:13:05.052Z,73.72
2022-12-22T08:15:34.095Z,58.72
2022-12-22T08:18:01.903Z,61.95
2022-12-22T08:20:29.085Z,55.83
2022-12-22T08:22:57.249Z,68.40
2022-12-22T08:25:24.507Z,72.18
2022-12-22T08:27:55.490Z,61.03
2022-12-22T08:30:25.524Z,57.75
2022-12-22T08:32:53.581Z,62.17
2022-12-22T08:35:21.032Z,51.00
2022-12-22T08:37:49.902Z,53.55
2022-12-22T08:40:21.905Z,54.45
2022-12-22T08:42:51.279Z,57.33
2022-12-22T08:45:18.578Z,81.38
2022-12-22T08:47:45.573Z,51.25
2022-12-22T08:50:14.355Z,56.83
2022-12-22T08:52:41.725Z,63.08
2022-12-22T08:55:10.040Z,59.50
2022-12-22T08:57:37.775Z,57.55
2022-12-22T09:00:06.917Z,51.67
2022-12-22T09:02:34.485Z,62.20
2022-12-22T09:09:11.469Z,52.97
2022-12-22T09:11:40.125Z,47.70
2022-12-22T09:14:08.624Z,50.30
2022-12-22T09:16:36.768Z,54.22
2022-12-22T09:19:04.779Z,54.78
2022-12-22T09:21:31.872Z,46.17
2022-12-22T09:23:59.534Z,57.60
2022-12-22T09:26:28.761Z,58.53
2022-12-22T09:28:56.054Z,50.33
2022-12-22T09:31:24.696Z,54.20
2022-12-22T09:33:54.001Z,57.70
2022-12-22T09:36:24.916Z,43.25
2022-12-22T09:38:52.064Z,53.15
2022-12-22T09:41:34.820Z,51.72
2022-12-22T09:44:06.878Z,50.75
2022-12-22T09:46:37.295Z,49.33
2022-12-22T09:49:07.259Z,55.53
2022-12-22T09:51:40.563Z,48.70
2022-12-22T09:54:11.520Z,68.93
2022-12-22T09:56:38.600Z,57.72
2022-12-22T09:59:27.637Z,44.40
2022-12-22T10:02:11.090Z,49.33
2022-12-22T10:05:07.118Z,37.22
2022-12-22T10:07:36.020Z,35.78
2022-12-22T10:10:14.367Z,29.80
2022-12-22T10:12:42.625Z,35.70
2022-12-22T10:15:20.036Z,40.50
2022-12-22T10:17:51.817Z,35.17
2022-12-22T10:20:21.678Z,33.30
2022-12-22T10:22:55.843Z,35.88
2022-12-22T10:26:00.409Z,41.65
2022-12-22T10:28:33.646Z,49.95
2022-12-22T10:31:15.100Z,55.58
2022-12-22T10:33:47.052Z,47.63
2022-12-22T10:36:37.233Z,77.55
2022-12-22T10:39:09.921Z,47.03
2022-12-22T10:41:42.272Z,43.67
2022-12-22T10:44:21.523Z,44.13
2022-12-22T10:46:54.543Z,41.53
2022-12-22T10:52:13.778Z,38.72
2022-12-22T10:54:44.791Z,40.72
2022-12-22T10:57:14.978Z,42.53
2022-12-22T10:59:54.172Z,55.83
2022-12-22T11:02:21.397Z,44.25
2022-12-22T11:04:49.829Z,83.38
2022-12-22T11:07:17.504Z,97.63
2022-12-22T11:09:44.526Z,29.48
2022-12-22T11:12:16.998Z,116.38
2022-12-22T11:15:20.197Z,18.55
2022-12-22T11:18:12.610Z,17.40
2022-12-22T11:21:07.463Z,40.10
2022-12-22T11:23:56.225Z,13.98
2022-12-22T11:26:40.541Z,27.45
2022-12-22T11:29:30.646Z,35.78
2022-12-22T11:32:15.861Z,26.50
2022-12-22T11:35:14.220Z,23.63
2022-12-22T11:38:00.955Z,26.77
2022-12-22T11:40:47.215Z,31.73
2022-12-22T11:43:35.356Z,33.45
2022-12-22T11:46:14.342Z,25.92
2022-12-22T11:48:53.525Z,26.17
2022-12-22T11:51:42.050Z,25.65
2022-12-22T11:54:31.960Z,49.97
2022-12-22T11:57:11.373Z,87.50
2022-12-22T11:59:47.391Z,51.88
2022-12-22T12:02:56.232Z,30.77
2022-12-22T12:05:34.569Z,20.20
2022-12-22T12:08:29.652Z,36.63
2022-12-22T12:11:18.699Z,19.55
2022-12-22T12:14:36.113Z,35.50
2022-12-22T12:17:15.172Z,18.58
2022-12-22T12:20:18.847Z,17.55
2022-12-22T12:23:17.426Z,30.88
2022-12-22T12:25:57.021Z,40.15
2022-12-22T12:28:23.858Z,27.25
2022-12-22T12:30:54.986Z,38.47
2022-12-22T12:33:35.580Z,41.40
2022-12-22T12:36:24.710Z,40.47
2022-12-22T12:39:08.768Z,49.88
2022-12-22T12:41:56.929Z,37.95
2022-12-22T12:44:28.537Z,32.50
2022-12-22T12:47:28.407Z,28.52
2022-12-22T12:50:34.027Z,26.60
2022-12-22T12:53:05.627Z,28.58
2022-12-22T12:55:52.016Z,33.20
2022-12-22T12:58:40.048Z,32.15
2022-12-22T13:01:13.284Z,17.25
2022-12-22T13:04:03.279Z,13.30
2022-12-22T13:06:49.128Z,22.10
2022-12-22T13:12:40.287Z,40.42
2022-12-22T13:17:53.852Z,42.67
2022-12-22T13:20:35.500Z,75.05
2022-12-22T13:23:10.531Z,33.70
2022-12-22T13:25:42.601Z,21.52
2022-12-22T13:28:16.797Z,23.00
2022-12-22T13:30:49.450Z,28.15
2022-12-22T13:33:24.487Z,31.15
2022-12-22T13:35:58.239Z,28.17
2022-12-22T13:38:37.432Z,27.70
2022-12-22T13:41:22.952Z,35.08
2022-12-22T13:43:57.397Z,37.88
2022-12-22T13:46:27.162Z,34.30
2022-12-22T13:48:57.506Z,28.42
2022-12-22T13:51:28.906Z,29.73
2022-12-22T13:56:42.685Z,29.60
2022-12-22T13:59:39.611Z,30.08
2022-12-22T14:02:09.401Z,39.03
2022-12-22T14:04:38.030Z,61.20
2022-12-22T14:07:17.322Z,61.67
2022-12-22T14:09:56.558Z,116.38
2022-12-22T14:12:30.366Z,144.63
2022-12-22T14:15:01.539Z,136.45
2022-12-22T14:17:30.935Z,160.07
2022-12-22T14:20:00.873Z,160.07
2022-12-22T14:22:33.125Z,68.78
2022-12-22T14:25:09.546Z,94.88
2022-12-22T14:27:49.435Z,48.15
2022-12-22T14:30:22.357Z,84.57
2022-12-22T14:32:55.480Z,59.35
2022-12-22T14:35:26.868Z,80.90
2022-12-22T14:38:16.987Z,79.10
2022-12-22T14:40:45.311Z,94.10
2022-12-22T14:43:18.263Z,74.70
2022-12-22T14:45:47.279Z,81.88
2022-12-22T14:48:39.997Z,85.95
2022-12-22T14:51:07.680Z,90.93
2022-12-22T14:53:37.290Z,98.70
2022-12-22T14:56:04.286Z,118.90
2022-12-22T14:58:35.421Z,129.50
2022-12-22T15:01:17.558Z,130.55
2022-12-22T15:03:55.128Z,163.82
2022-12-22T15:06:28.218Z,165.88
2022-12-22T15:09:07.276Z,155.73
2022-12-22T15:11:36.183Z,138.98
2022-12-22T15:14:04.030Z,110.20
2022-12-22T15:16:31.650Z,111.60
2022-12-22T15:18:58.597Z,116.80
2022-12-22T15:21:28.308Z,122.03
2022-12-22T15:23:55.270Z,187.25
2022-12-22T15:26:22.159Z,184.80
2022-12-22T15:28:49.089Z,131.60
2022-12-22T15:31:17.379Z,134.82
2022-12-22T15:33:45.795Z,153.95
2022-12-22T15:36:14.824Z,144.45
2022-12-22T15:38:52.148Z,103.30
2022-12-22T15:41:19.183Z,95.88
2022-12-22T15:44:01.535Z,104.20
2022-12-22T15:46:34.092Z,96.72
2022-12-22T15:49:01.137Z,124.03
2022-12-22T15:51:30.658Z,115.88
2022-12-22T15:54:12.131Z,149.57
2022-12-22T15:56:39.009Z,171.68
2022-12-22T15:59:06.153Z,177.02
2022-12-22T16:01:33.193Z,177.95
2022-12-22T16:04:00.453Z,168.85
2022-12-22T16:06:27.475Z,159.27
2022-12-22T16:08:54.712Z,181.80
2022-12-22T16:11:21.830Z,192.40
2022-12-22T16:13:50.501Z,177.07
2022-12-22T16:16:17.771Z,175.68
2022-12-22T16:18:44.856Z,200.50
2022-12-22T16:21:17.033Z,136.00
2022-12-22T16:23:46.864Z,136.55
2022-12-22T16:26:20.450Z,130.45
2022-12-22T16:28:48.140Z,136.48
2022-12-22T16:31:21.359Z,100.32
2022-12-22T16:33:48.428Z,113.72
2022-12-22T16:36:15.898Z,115.00
2022-12-22T16:38:45.842Z,113.63
2022-12-22T16:41:24.355Z,119.10
2022-12-22T16:46:39.289Z,151.70
2022-12-22T16:49:09.253Z,184.95
2022-12-22T16:51:40.319Z,190.98
2022-12-22T16:54:07.332Z,190.52
2022-12-22T16:56:35.019Z,185.88
2022-12-22T16:59:04.664Z,180.40
2022-12-22T17:01:35.175Z,119.47
2022-12-22T17:04:08.045Z,156.68
2022-12-22T17:06:35.194Z,144.57
2022-12-22T17:09:04.705Z,149.02
2022-12-22T17:11:34.681Z,155.30
2022-12-22T17:14:38.708Z,129.07
2022-12-22T17:17:05.918Z,111.57
2022-12-22T17:19:32.892Z,79.22
2022-12-22T17:22:03.763Z,64.50
2022-12-22T17:24:30.645Z,62.95
2022-12-22T17:27:03.438Z,58.70
2022-12-22T17:29:30.509Z,64.35
2022-12-22T17:32:04.122Z,64.13
2022-12-22T17:34:42.785Z,67.78
2022-12-22T17:37:22.349Z,142.40
2022-12-22T17:39:59.150Z,142.68
2022-12-22T17:42:26.782Z,129.23
2022-12-22T17:44:53.945Z,138.82
2022-12-22T17:47:29.085Z,194.45
2022-12-22T17:49:58.735Z,184.30
2022-12-22T17:52:28.226Z,193.32
2022-12-22T17:54:55.323Z,167.45
2022-12-22T17:57:32.408Z,127.95
2022-12-22T17:59:59.498Z,130.98
2022-12-22T18:02:31.196Z,140.18
2022-12-22T18:04:58.924Z,119.78
2022-12-22T18:07:26.027Z,110.78
2022-12-22T18:09:59.087Z,96.60
2022-12-22T18:12:26.172Z,99.72
2022-12-22T18:14:53.165Z,100.80
2022-12-22T18:17:26.229Z,96.63
2022-12-22T18:19:55.958Z,108.28
2022-12-22T18:22:25.839Z,106.47
2022-12-22T18:24:54.602Z,70.95
2022-12-22T18:27:22.904Z,63.72
2022-12-22T18:29:49.867Z,55.63
2022-12-22T18:32:26.308Z,61.70
2022-12-22T18:34:54.361Z,59.35
2022-12-22T18:37:21.451Z,55.53
2022-12-22T18:39:48.315Z,64.00
2022-12-22T18:42:23.596Z,70.38
2022-12-22T18:44:58.189Z,96.65
2022-12-22T18:47:25.216Z,127.78
2022-12-22T18:49:52.343Z,155.77
2022-12-22T18:52:23.332Z,144.48
2022-12-22T18:54:51.096Z,179.52
2022-12-22T18:57:22.799Z,171.90
2022-12-22T18:59:49.813Z,184.80
2022-12-22T19:02:21.055Z,220.07
2022-12-22T19:04:55.222Z,234.85
2022-12-22T19:07:25.115Z,196.75
2022-12-22T19:09:52.345Z,196.93
2022-12-22T19:12:25.322Z,197.63
2022-12-22T19:14:57.399Z,197.98
2022-12-22T19:17:27.926Z,164.60
2022-12-22T19:19:55.655Z,140.52
2022-12-22T19:22:22.515Z,121.15
2022-12-22T19:24:49.371Z,103.78
2022-12-22T19:27:16.176Z,123.43
2022-12-22T19:29:43.069Z,116.05
2022-12-22T19:32:26.295Z,126.93
2022-12-22T19:34:53.256Z,121.60
2022-12-22T19:37:20.317Z,137.35
2022-12-22T19:39:47.585Z,188.73
2022-12-22T19:42:19.681Z,196.65
2022-12-22T19:44:47.249Z,190.90
2022-12-22T19:47:24.486Z,212.68
2022-12-22T19:49:51.320Z,203.40
2022-12-22T19:52:18.270Z,188.50
2022-12-22T19:54:45.196Z,203.82
2022-12-22T19:57:19.628Z,189.77
2022-12-22T19:59:49.813Z,184.60
2022-12-22T20:02:32.002Z,187.57
2022-12-22T20:05:00.869Z,180.02
2022-12-22T20:07:29.874Z,192.23
2022-12-22T20:09:57.115Z,155.02
2022-12-22T20:12:36.154Z,124.13
2022-12-22T20:15:13.585Z,140.55
2022-12-22T20:17:40.473Z,128.73
2022-12-22T20:20:13.365Z,120.68
2022-12-22T20:22:48.388Z,95.32
2022-12-22T20:25:26.753Z,81.72
2022-12-22T20:27:55.421Z,67.47
2022-12-22T20:30:28.903Z,94.55
2022-12-22T20:32:56.032Z,86.25
2022-12-22T20:35:24.292Z,97.18
2022-12-22T20:37:51.408Z,148.88
2022-12-22T20:40:26.366Z,192.10
2022-12-22T20:42:53.713Z,241.40
2022-12-22T20:45:23.910Z,251.80
2022-12-22T20:47:52.112Z,248.82
2022-12-22T20:50:37.044Z,219.40
2022-12-22T20:53:05.441Z,218.20
2022-12-22T20:55:32.487Z,227.88
2022-12-22T20:58:01.166Z,228.13
2022-12-22T21:00:29.145Z,223.82
2022-12-22T21:02:56.220Z,303.27
2022-12-22T21:05:23.237Z,322.42
2022-12-22T21:07:50.261Z,315.85
2022-12-22T21:10:26.497Z,319.45
2022-12-22T21:12:53.461Z,233.23
2022-12-22T21:15:28.265Z,194.32
2022-12-22T21:17:58.672Z,172.07
2022-12-22T21:20:28.403Z,129.30
2022-12-22T21:22:55.511Z,80.15
2022-12-22T21:25:28.655Z,51.97
2022-12-22T21:27:56.481Z,46.80
2022-12-22T21:30:28.119Z,45.08
2022-12-22T21:32:55.930Z,47.58
2022-12-22T21:35:31.269Z,57.03
2022-12-22T21:37:58.816Z,67.28
2022-12-22T21:40:28.233Z,71.05
2022-12-22T21:42:56.746Z,57.63
2022-12-22T21:45:26.745Z,45.10
2022-12-22T21:47:53.656Z,46.90
2022-12-22T21:50:33.076Z,48.03
2022-12-22T21:53:00.408Z,45.83
2022-12-22T21:55:32.769Z,44.95
2022-12-22T21:58:03.675Z,48.58
2022-12-22T22:00:45.990Z,61.50
2022-12-22T22:03:14.808Z,55.15
2022-12-22T22:05:42.349Z,73.93
2022-12-22T22:08:13.387Z,67.65
2022-12-22T22:13:09.037Z,61.75
2022-12-22T22:15:37.147Z,72.00
2022-12-22T22:18:07.247Z,51.58
2022-12-22T22:20:35.050Z,58.92
2022-12-22T22:23:02.206Z,51.70
2022-12-22T22:25:29.086Z,61.92
2022-12-22T22:28:00.014Z,65.65
2022-12-22T22:30:27.092Z,46.83
2022-12-22T22:32:55.834Z,48.00
2022-12-22T22:35:23.866Z,43.63
2022-12-22T22:37:58.117Z,46.78
2022-12-22T22:40:25.381Z,41.92
2022-12-22T22:42:57.313Z,45.05
2022-12-22T22:45:27.841Z,42.85
2022-12-22T22:47:55.908Z,59.73
2022-12-22T22:50:23.045Z,41.15
2022-12-22T22:52:50.341Z,42.75
2022-12-22T22:55:17.345Z,58.40
2022-12-22T22:57:44.220Z,89.82
2022-12-22T23:00:13.792Z,67.70
2022-12-22T23:02:41.044Z,48.47
2022-12-22T23:05:09.105Z,40.05
2022-12-22T23:07:36.197Z,45.33
2022-12-22T23:10:05.397Z,48.70
2022-12-22T23:12:32.638Z,56.10
2022-12-22T23:15:02.387Z,58.92
2022-12-22T23:17:29.693Z,85.07
2022-12-22T23:19:56.680Z,95.60
2022-12-22T23:22:28.471Z,53.72
2022-12-22T23:24:55.338Z,53.75
2022-12-22T23:27:25.187Z,60.85
2022-12-22T23:29:52.036Z,64.10
2022-12-22T23:32:25.776Z,65.35
2022-12-22T23:34:52.739Z,61.20
2022-12-22T23:37:19.996Z,62.70
2022-12-22T23:39:47.110Z,66.22
2022-12-22T23:42:13.885Z,56.22
2022-12-22T23:44:43.952Z,55.90
2022-12-22T23:47:10.860Z,55.22
2022-12-22T23:49:37.711Z,77.20
2022-12-22T23:52:04.711Z,63.00
2022-12-22T23:54:31.623Z,66.97
2022-12-22T23:56:58.461Z,61.30
2022-12-22T23:59:26.259Z,59.05
